Time;durP1;ratioP1;P1;durP2;ratioP2;P2;SDS_P1;SDS_P2;PMS_P1;PMS_P2;Temp;Humidity;BMP_temperature;BMP_pressure;BME280_temperature;BME280_humidity;BME280_pressure;Samples;Min_cycle;Max_cycle;Signal;HPM_P1;HPM_P2
2023/07/06 00:01:55;;;;;;;11.38;6.15;;;;;;;19.53;83.51;93916.69;5065019;28;20051;-77
2023/07/06 00:04:22;;;;;;;9.95;5.32;;;;;;;19.57;83.60;93912.09;5065016;28;20025;-77
2023/07/06 00:06:48;;;;;;;8.82;4.97;;;;;;;19.59;84.08;93916.00;5064823;28;20025;-77
2023/07/06 00:09:14;;;;;;;13.30;5.53;;;;;;;19.65;84.07;93911.03;5064832;28;20032;-77
2023/07/06 00:11:41;;;;;;;7.05;5.50;;;;;;;19.63;83.91;93902.53;5064851;28;20016;-77
2023/07/06 00:14:09;;;;;;;11.57;5.75;;;;;;;19.68;83.79;93904.09;5064802;28;20024;-80
2023/07/06 00:16:35;;;;;;;7.75;4.95;;;;;;;19.68;83.53;93909.50;5064641;28;20092;-79
2023/07/06 00:19:00;;;;;;;8.68;5.82;;;;;;;19.68;83.53;93901.41;5064719;28;20033;-78
2023/07/06 00:21:27;;;;;;;13.48;6.25;;;;;;;19.65;83.70;93897.53;5064726;28;20319;-79
2023/07/06 00:23:53;;;;;;;7.68;5.45;;;;;;;19.68;84.20;93898.69;5064612;28;20082;-79
2023/07/06 00:26:20;;;;;;;12.55;5.35;;;;;;;19.68;84.56;93899.47;5064615;28;20021;-79
2023/07/06 00:28:49;;;;;;;10.80;5.43;;;;;;;19.71;84.32;93889.88;5064735;28;20266;-79
2023/07/06 00:31:21;;;;;;;11.05;5.35;;;;;;;19.72;82.81;93886.03;5064321;28;20017;-79
2023/07/06 00:33:48;;;;;;;8.15;5.68;;;;;;;19.69;83.05;93897.56;5064429;28;20032;-80
2023/07/06 00:36:15;;;;;;;9.25;5.20;;;;;;;19.69;83.13;93892.94;5064525;28;20033;-79
2023/07/06 00:38:41;;;;;;;10.40;5.10;;;;;;;19.75;82.53;93888.78;5064437;28;20025;-79
2023/07/06 00:41:08;;;;;;;8.18;5.25;;;;;;;19.73;82.09;93888.38;5064330;28;20275;-79
2023/07/06 00:43:52;;;;;;;10.35;5.18;;;;;;;19.69;82.65;93887.53;5064207;28;20188;-77
2023/07/06 00:46:19;;;;;;;11.38;5.30;;;;;;;19.66;82.96;93890.94;5063776;28;20373;-77
2023/07/06 00:48:48;;;;;;;8.00;5.43;;;;;;;19.67;83.05;93886.34;5063956;28;20075;-77
2023/07/06 00:51:16;;;;;;;9.00;5.38;;;;;;;19.71;83.14;93881.78;5064078;28;20048;-78
2023/07/06 00:53:45;;;;;;;7.25;5.45;;;;;;;19.75;82.86;93879.91;5064115;28;20021;-79
2023/07/06 00:56:16;;;;;;;6.85;5.30;;;;;;;19.78;82.85;93877.22;5063805;28;20024;-78
2023/07/06 00:58:48;;;;;;;10.57;5.43;;;;;;;19.70;83.23;93880.97;5063967;28;20058;-78
2023/07/06 01:01:19;;;;;;;7.43;5.28;;;;;;;19.62;83.25;93877.41;5064035;28;20033;-79
2023/07/06 01:03:52;;;;;;;9.00;5.53;;;;;;;19.65;82.98;93881.31;5063762;28;20025;-78
2023/07/06 01:06:31;;;;;;;8.40;5.22;;;;;;;19.61;82.95;93883.19;5063768;28;20255;-79
2023/07/06 01:08:57;;;;;;;8.82;5.35;;;;;;;19.65;83.31;93873.19;5063712;28;20037;-78
2023/07/06 01:11:24;;;;;;;8.85;5.32;;;;;;;19.63;84.33;93875.47;5063914;28;20051;-78
2023/07/06 01:13:52;;;;;;;11.25;5.70;;;;;;;19.58;84.68;93871.19;5063674;28;20025;-79
2023/07/06 01:16:32;;;;;;;11.00;5.95;;;;;;;19.59;84.80;93870.03;5063522;28;20025;-79
2023/07/06 01:19:06;;;;;;;9.80;5.40;;;;;;;19.62;84.51;93872.00;5063682;28;20052;-79
2023/07/06 01:21:44;;;;;;;10.98;6.32;;;;;;;19.55;84.81;93869.22;5063448;28;20373;-78
2023/07/06 01:24:38;;;;;;;10.95;5.43;;;;;;;19.51;85.36;93864.91;5063499;28;20060;-78
2023/07/06 01:27:14;;;;;;;11.95;5.45;;;;;;;19.52;85.84;93869.16;5063497;28;20025;-77
2023/07/06 01:29:45;;;;;;;13.60;6.05;;;;;;;19.49;85.73;93859.09;5063497;28;20041;-78
2023/07/06 01:32:18;;;;;;;10.65;5.63;;;;;;;19.44;85.87;93862.94;5063261;28;20261;-77
2023/07/06 01:34:53;;;;;;;9.68;5.18;;;;;;;19.41;86.10;93858.25;5063228;28;20021;-77
2023/07/06 01:37:23;;;;;;;8.60;5.53;;;;;;;19.38;85.99;93859.75;5063311;28;20024;-78
2023/07/06 01:39:49;;;;;;;9.88;5.55;;;;;;;19.38;85.62;93859.75;5063240;28;20028;-77
2023/07/06 01:42:34;;;;;;;9.30;5.57;;;;;;;19.37;85.52;93866.31;5063387;28;20040;-77
2023/07/06 01:45:02;;;;;;;9.80;5.32;;;;;;;19.34;85.72;93864.34;5062968;28;20029;-77
2023/07/06 01:47:29;;;;;;;18.60;5.65;;;;;;;19.33;85.73;93862.78;5063100;28;20039;-77
2023/07/06 01:49:57;;;;;;;15.73;5.90;;;;;;;19.30;85.98;93868.16;5062120;28;20338;-77
2023/07/06 01:52:33;;;;;;;9.05;5.28;;;;;;;19.23;86.40;93861.53;5062923;28;20049;-77
2023/07/06 01:55:20;;;;;;;9.95;5.75;;;;;;;19.16;86.54;93864.13;5063079;28;20033;-78
2023/07/06 01:58:04;;;;;;;6.55;4.57;;;;;;;19.16;86.72;93866.06;5062039;28;20043;-78
2023/07/06 02:00:32;;;;;;;15.23;5.60;;;;;;;19.11;86.58;93866.38;5062873;28;20092;-78
2023/07/06 02:02:59;;;;;;;12.55;5.75;;;;;;;19.04;86.66;93862.44;5061589;28;20086;-77
2023/07/06 02:05:26;;;;;;;7.90;5.68;;;;;;;19.08;87.03;93859.00;5063148;28;20043;-78
2023/07/06 02:07:52;;;;;;;11.85;6.55;;;;;;;18.98;86.96;93858.50;5062948;28;20020;-78
2023/07/06 02:10:19;;;;;;;11.45;6.22;;;;;;;18.97;87.24;93862.34;5062726;28;20078;-78
2023/07/06 02:12:47;;;;;;;13.48;6.68;;;;;;;19.00;86.99;93858.91;5062964;28;20009;-78
2023/07/06 02:15:21;;;;;;;10.38;6.15;;;;;;;18.95;87.57;93856.53;5062918;28;20035;-79
2023/07/06 02:17:49;;;;;;;9.10;6.13;;;;;;;18.92;87.58;93859.19;5062703;28;20029;-78
2023/07/06 02:20:16;;;;;;;11.57;5.82;;;;;;;18.89;87.49;93860.72;5062642;28;20028;-78
2023/07/06 02:22:43;;;;;;;8.32;5.70;;;;;;;18.87;87.66;93857.59;5062623;28;20040;-77
2023/07/06 02:25:08;;;;;;;9.70;5.65;;;;;;;18.87;87.58;93852.19;5062704;28;20020;-78
2023/07/06 02:27:34;;;;;;;6.90;5.15;;;;;;;18.84;87.70;93850.97;5062631;28;20215;-78
2023/07/06 02:29:59;;;;;;;15.55;5.45;;;;;;;18.86;87.85;93841.75;5062760;28;20254;-78
2023/07/06 02:32:26;;;;;;;13.90;6.38;;;;;;;18.82;88.39;93844.41;5063035;28;20040;-78
2023/07/06 02:34:52;;;;;;;13.45;6.47;;;;;;;18.84;88.27;93844.81;5062475;28;20029;-79
2023/07/06 02:37:18;;;;;;;9.60;6.60;;;;;;;18.82;88.18;93844.41;5062531;28;20040;-79
2023/07/06 02:39:43;;;;;;;13.30;6.90;;;;;;;18.84;88.24;93850.97;5062600;28;20048;-79
2023/07/06 02:42:08;;;;;;;14.77;5.60;;;;;;;18.86;88.47;93841.75;5061390;28;20260;-79
2023/07/06 02:44:34;;;;;;;11.40;5.70;;;;;;;18.81;88.37;93837.44;5062285;28;20096;-79
2023/07/06 02:47:03;;;;;;;9.45;5.75;;;;;;;18.80;88.31;93830.47;5062540;28;20028;-80
2023/07/06 02:49:29;;;;;;;12.25;5.68;;;;;;;18.82;88.35;93834.38;5061294;28;20024;-79
2023/07/06 02:51:55;;;;;;;9.27;6.10;;;;;;;18.83;88.40;93830.53;5062111;28;20117;-79
2023/07/06 02:54:20;;;;;;;11.90;6.10;;;;;;;18.87;88.06;93833.28;5062528;28;20021;-79
2023/07/06 02:56:47;;;;;;;11.63;6.75;;;;;;;18.87;88.41;93835.19;5062369;28;20266;-79
2023/07/06 02:59:13;;;;;;;11.45;6.25;;;;;;;18.91;88.18;93836.81;5062379;28;20028;-79
2023/07/06 03:01:38;;;;;;;9.85;6.10;;;;;;;18.90;88.52;93842.56;5062271;28;20020;-79
2023/07/06 03:04:09;;;;;;;8.57;5.78;;;;;;;18.90;88.30;93834.47;5060981;28;20052;-78
2023/07/06 03:06:39;;;;;;;22.77;6.20;;;;;;;18.85;88.46;93835.56;5061129;28;20027;-78
2023/07/06 03:09:07;;;;;;;12.52;6.85;;;;;;;18.85;89.19;93840.97;5061788;28;20024;-78
2023/07/06 03:11:33;;;;;;;9.40;6.35;;;;;;;18.87;88.76;93833.28;5066085;28;20035;-78
2023/07/06 03:14:00;;;;;;;13.02;7.07;;;;;;;18.85;88.11;93838.28;5066043;28;20131;-78
2023/07/06 03:16:27;;;;;;;11.07;6.05;;;;;;;18.81;88.89;93845.56;5064844;28;20200;-78
2023/07/06 03:18:52;;;;;;;12.75;7.63;;;;;;;18.78;88.64;93838.13;5065970;28;20025;-78
2023/07/06 03:21:20;;;;;;;13.60;6.72;;;;;;;18.83;88.81;93841.34;5064644;28;20070;-78
2023/07/06 03:23:46;;;;;;;13.02;7.65;;;;;;;18.80;88.71;93835.88;5063904;28;20025;-77
2023/07/06 03:26:13;;;;;;;8.88;6.60;;;;;;;18.81;88.87;93840.16;5063985;28;20028;-80
2023/07/06 03:28:39;;;;;;;21.88;8.15;;;;;;;18.85;88.72;93830.19;5065488;28;20040;-79
2023/07/06 03:31:04;;;;;;;13.50;7.15;;;;;;;18.83;89.03;93832.47;5065508;28;20036;-80
2023/07/06 03:33:30;;;;;;;14.90;7.45;;;;;;;18.81;89.21;93832.81;5065595;28;20021;-78
2023/07/06 03:35:58;;;;;;;12.00;8.05;;;;;;;18.78;89.58;93833.50;5065704;28;20020;-80
2023/07/06 03:38:25;;;;;;;11.10;8.20;;;;;;;18.83;89.64;93829.75;5064573;28;20083;-79
2023/07/06 03:40:51;;;;;;;15.13;7.85;;;;;;;18.91;89.56;93825.22;5065496;28;20029;-80
2023/07/06 03:43:17;;;;;;;12.73;8.00;;;;;;;18.97;88.91;93827.25;5065396;28;20029;-80
2023/07/06 03:45:46;;;;;;;12.05;8.35;;;;;;;18.94;88.81;93825.25;5065472;28;20101;-80
2023/07/06 03:48:12;;;;;;;15.63;8.77;;;;;;;18.96;89.27;93828.38;5065300;28;20021;-80
2023/07/06 03:50:37;;;;;;;11.43;8.60;;;;;;;19.00;89.19;93823.03;5065290;28;20021;-81
2023/07/06 03:53:03;;;;;;;12.75;8.20;;;;;;;18.99;89.12;93821.47;5065330;28;20098;-78
2023/07/06 03:55:28;;;;;;;14.50;7.50;;;;;;;19.03;89.49;93833.88;5065138;28;20017;-79
2023/07/06 03:57:54;;;;;;;13.77;7.40;;;;;;;19.06;89.41;93831.59;5065238;28;20341;-79
2023/07/06 04:00:22;;;;;;;14.85;8.50;;;;;;;19.07;89.25;93831.22;5065154;28;20025;-79
2023/07/06 04:02:49;;;;;;;16.02;7.28;;;;;;;18.92;89.86;93830.25;5065187;28;20105;-79
2023/07/06 04:05:19;;;;;;;11.50;8.63;;;;;;;18.88;90.85;93832.13;5065021;28;20025;-79
2023/07/06 04:07:45;;;;;;;14.48;7.63;;;;;;;18.94;91.30;93825.25;5063814;28;20064;-79
2023/07/06 04:10:12;;;;;;;13.40;7.45;;;;;;;19.02;91.28;93834.25;5064885;28;20047;-79
2023/07/06 04:12:38;;;;;;;11.98;7.82;;;;;;;19.06;91.20;93832.38;5064817;28;20029;-79
2023/07/06 04:15:06;;;;;;;14.73;7.50;;;;;;;19.12;90.50;93836.28;5064680;28;20239;-80
2023/07/06 04:17:32;;;;;;;10.95;7.65;;;;;;;19.14;90.21;93838.63;5064867;28;20028;-79
2023/07/06 04:19:58;;;;;;;17.33;7.32;;;;;;;19.16;90.27;93831.72;5064555;28;20035;-78
2023/07/06 04:22:23;;;;;;;14.00;7.78;;;;;;;19.24;90.13;93833.34;5063573;28;20103;-78
2023/07/06 04:24:51;;;;;;;11.77;7.38;;;;;;;19.33;89.57;93846.56;5064511;28;20029;-78
2023/07/06 04:27:17;;;;;;;16.38;8.77;;;;;;;19.44;89.08;93841.31;5064478;28;20056;-78
2023/07/06 04:29:42;;;;;;;15.48;9.40;;;;;;;19.48;88.88;93842.13;5064195;28;20028;-77
2023/07/06 04:32:08;;;;;;;14.10;8.48;;;;;;;19.59;88.33;93839.53;5064475;28;20080;-77
2023/07/06 04:34:33;;;;;;;16.58;10.18;;;;;;;19.69;88.02;93841.56;5064548;28;20033;-78
2023/07/06 04:36:59;;;;;;;18.10;9.63;;;;;;;19.79;87.82;93838.22;5064438;28;20215;-77
2023/07/06 04:39:26;;;;;;;13.35;8.15;;;;;;;19.89;86.19;93841.41;5064293;28;20020;-78
2023/07/06 04:41:51;;;;;;;17.30;8.70;;;;;;;19.93;84.67;93840.28;5064223;28;20033;-79
2023/07/06 04:44:18;;;;;;;17.00;8.55;;;;;;;19.96;84.38;93839.50;5063994;28;20070;-79
2023/07/06 04:46:43;;;;;;;12.93;8.52;;;;;;;20.05;84.31;93831.09;5064170;28;20025;-79
2023/07/06 04:49:08;;;;;;;22.25;9.20;;;;;;;20.11;83.68;93835.03;5064154;28;20320;-79
2023/07/06 04:51:35;;;;;;;14.43;7.43;;;;;;;20.16;83.16;93831.19;5064179;28;20045;-80
2023/07/06 04:54:04;;;;;;;15.68;8.10;;;;;;;20.18;83.14;93835.06;5063978;28;20044;-81
2023/07/06 04:56:30;;;;;;;15.77;8.88;;;;;;;20.23;82.99;93839.34;5064032;28;20275;-80
2023/07/06 04:58:56;;;;;;;17.33;8.30;;;;;;;20.24;82.61;93833.56;5064291;28;20020;-78
2023/07/06 05:01:23;;;;;;;23.23;9.05;;;;;;;20.26;83.26;93843.25;5064117;28;20039;-78
2023/07/06 05:03:49;;;;;;;14.10;8.90;;;;;;;20.27;83.75;93836.69;5062377;28;20123;-78
2023/07/06 05:06:15;;;;;;;15.25;8.50;;;;;;;20.29;83.36;93839.78;5063771;28;20028;-78
2023/07/06 05:08:43;;;;;;;16.70;9.07;;;;;;;20.20;82.71;93837.41;5062581;28;20032;-77
2023/07/06 05:11:09;;;;;;;15.05;8.73;;;;;;;20.18;82.63;93845.91;5063296;28;20025;-77
2023/07/06 05:13:34;;;;;;;17.75;8.38;;;;;;;20.23;82.15;93844.75;5063513;28;20249;-77
2023/07/06 05:16:00;;;;;;;17.67;9.38;;;;;;;20.22;82.24;93852.09;5063577;28;20021;-78
2023/07/06 05:18:25;;;;;;;15.27;8.57;;;;;;;20.18;82.31;93862.13;5063818;28;20093;-78
2023/07/06 05:20:56;;;;;;;18.73;8.13;;;;;;;20.18;82.36;93856.72;5063486;28;20029;-77
2023/07/06 05:23:27;;;;;;;20.08;8.70;;;;;;;20.27;82.83;93866.44;5063473;28;20055;-78
2023/07/06 05:25:53;;;;;;;18.08;8.95;;;;;;;20.28;82.83;93857.97;5063527;28;20250;-78
2023/07/06 05:28:20;;;;;;;12.25;8.18;;;;;;;20.25;81.56;93858.69;5063267;28;20056;-78
2023/07/06 05:30:47;;;;;;;15.43;8.10;;;;;;;20.23;82.01;93864.50;5063413;28;20021;-78
2023/07/06 05:33:12;;;;;;;20.33;9.93;;;;;;;20.28;83.09;93870.72;5063333;28;20096;-78
2023/07/06 05:35:38;;;;;;;17.30;9.55;;;;;;;20.36;83.53;93866.91;5063110;28;20196;-78
2023/07/06 05:38:03;;;;;;;14.63;8.18;;;;;;;20.46;86.75;93866.22;5063122;28;20334;-72
2023/07/06 05:40:29;;;;;;;16.05;9.63;;;;;;;20.48;83.07;93874.75;5062908;28;20040;-72
2023/07/06 05:42:54;;;;;;;11.20;8.93;;;;;;;20.48;81.31;93869.34;5063023;28;20044;-72
2023/07/06 05:45:21;;;;;;;18.25;8.70;;;;;;;20.55;84.24;93869.38;5062756;28;20247;-72
2023/07/06 05:47:47;;;;;;;15.70;8.80;;;;;;;20.54;82.67;93867.06;5061681;28;20207;-71
2023/07/06 05:50:13;;;;;;;23.63;10.77;;;;;;;20.61;82.82;93880.66;5062964;28;20067;-71
2023/07/06 05:52:39;;;;;;;10.57;7.20;;;;;;;20.70;79.94;93864.88;5062542;28;20048;-71
2023/07/06 05:55:05;;;;;;;11.60;7.25;;;;;;;20.75;81.96;93867.22;5062673;28;20318;-71
2023/07/06 05:57:32;;;;;;;8.73;6.28;;;;;;;20.77;79.51;93880.41;5062667;28;20021;-71
2023/07/06 05:59:58;;;;;;;11.68;6.72;;;;;;;20.78;80.38;93871.09;5062779;28;20235;-72
2023/07/06 06:02:25;;;;;;;15.80;6.22;;;;;;;20.88;80.08;93881.22;5062814;28;20017;-71
2023/07/06 06:04:51;;;;;;;20.38;7.53;;;;;;;20.91;81.30;93885.13;5062576;28;20219;-72
2023/07/06 06:07:19;;;;;;;15.07;7.28;;;;;;;20.95;79.38;93883.97;5062610;28;20025;-72
2023/07/06 06:09:45;;;;;;;11.68;7.22;;;;;;;21.01;81.29;93877.06;5062551;28;20036;-71
2023/07/06 06:12:17;;;;;;;15.68;6.93;;;;;;;21.09;79.85;93877.09;5062694;28;20021;-72
2023/07/06 06:14:43;;;;;;;16.58;7.45;;;;;;;21.13;79.30;93877.91;5062810;28;20017;-72
2023/07/06 06:17:09;;;;;;;17.48;7.35;;;;;;;21.23;77.56;93877.19;5062521;28;20094;-72
2023/07/06 06:19:37;;;;;;;10.93;7.43;;;;;;;21.15;77.31;93883.72;5062755;28;20016;-72
2023/07/06 06:22:08;;;;;;;12.98;7.22;;;;;;;21.13;77.54;93872.47;5062620;28;20403;-72
2023/07/06 06:24:33;;;;;;;13.07;7.03;;;;;;;21.17;77.70;93875.97;5062581;28;20215;-72
2023/07/06 06:27:00;;;;;;;11.32;6.47;;;;;;;21.25;78.29;93885.69;5062702;28;20044;-72
2023/07/06 06:29:27;;;;;;;14.65;5.90;;;;;;;21.40;76.37;93875.69;5062774;28;20025;-72
2023/07/06 06:31:53;;;;;;;10.77;6.20;;;;;;;21.50;75.94;93877.69;5062702;28;20017;-73
2023/07/06 06:34:18;;;;;;;10.48;5.55;;;;;;;21.53;75.19;93876.16;5062429;28;20021;-72
2023/07/06 06:36:44;;;;;;;14.93;5.68;;;;;;;21.43;76.08;93878.44;5062294;28;20036;-72
2023/07/06 06:39:09;;;;;;;14.43;6.60;;;;;;;21.47;76.56;93872.25;5062450;28;20025;-72
2023/07/06 06:41:38;;;;;;;9.15;6.25;;;;;;;21.56;77.32;93865.31;5061020;28;20027;-72
2023/07/06 06:44:05;;;;;;;10.48;6.43;;;;;;;21.56;76.14;93864.56;5063245;28;20036;-71
2023/07/06 06:46:31;;;;;;;11.02;7.18;;;;;;;21.59;76.15;93866.47;5066547;28;20307;-72
2023/07/06 06:48:57;;;;;;;11.68;6.72;;;;;;;21.64;75.41;93863.41;5066314;28;20307;-73
2023/07/06 06:51:24;;;;;;;14.90;7.50;;;;;;;21.68;75.40;93866.91;5066392;28;20116;-72
2023/07/06 06:53:50;;;;;;;9.73;6.25;;;;;;;21.61;76.16;93861.44;5066384;28;20251;-72
2023/07/06 06:56:15;;;;;;;18.63;5.88;;;;;;;21.77;76.79;93859.16;5066306;28;20020;-72
2023/07/06 06:58:41;;;;;;;9.80;5.88;;;;;;;21.87;74.48;93856.88;5066083;28;20049;-73
2023/07/06 07:01:08;;;;;;;9.73;6.40;;;;;;;21.83;74.53;93860.34;5066373;28;20029;-73
2023/07/06 07:03:34;;;;;;;14.38;5.95;;;;;;;21.88;73.53;93858.41;5066012;28;20079;-73
2023/07/06 07:06:03;;;;;;;12.07;6.00;;;;;;;21.95;73.57;93859.22;5065972;28;20346;-74
2023/07/06 07:08:29;;;;;;;10.68;5.78;;;;;;;21.98;72.97;93853.03;5065971;28;20032;-74
2023/07/06 07:10:57;;;;;;;13.07;6.28;;;;;;;22.00;72.43;93852.63;5066107;28;20227;-73
2023/07/06 07:13:23;;;;;;;39.63;6.97;;;;;;;22.08;72.55;93851.47;5064954;28;20035;-75
2023/07/06 07:15:49;;;;;;;10.93;5.57;;;;;;;22.09;71.24;93844.88;5065863;28;20044;-73
2023/07/06 07:18:15;;;;;;;10.60;5.13;;;;;;;22.22;69.84;93846.03;5064847;28;20016;-74
2023/07/06 07:20:43;;;;;;;15.15;5.82;;;;;;;22.32;69.49;93857.34;5065814;28;20017;-78
2023/07/06 07:23:09;;;;;;;8.82;5.55;;;;;;;22.35;67.92;93865.50;5065607;28;20025;-78
2023/07/06 07:25:38;;;;;;;10.07;6.05;;;;;;;22.42;68.43;93859.28;5064335;28;20047;-76
2023/07/06 07:28:05;;;;;;;8.27;5.20;;;;;;;22.47;68.16;93856.19;5064076;28;20044;-75
2023/07/06 07:30:30;;;;;;;12.07;5.57;;;;;;;22.58;69.08;93858.88;5064041;28;20025;-76
2023/07/06 07:32:57;;;;;;;9.32;5.13;;;;;;;22.62;68.80;93857.72;5065332;28;20027;-76
2023/07/06 07:35:23;;;;;;;9.82;5.50;;;;;;;22.68;68.59;93858.09;5064878;28;20036;-77
2023/07/06 07:37:50;;;;;;;10.82;5.10;;;;;;;22.79;67.58;93863.50;5061855;28;20027;-77
2023/07/06 07:40:17;;;;;;;14.48;5.20;;;;;;;22.87;67.01;93856.13;5061906;28;20047;-76
2023/07/06 07:42:46;;;;;;;8.00;4.63;;;;;;;23.03;66.04;93860.00;5062174;28;20033;-77
2023/07/06 07:45:15;;;;;;;13.73;5.22;;;;;;;23.13;65.12;93855.69;5061260;28;20044;-77
2023/07/06 07:47:40;;;;;;;7.72;4.75;;;;;;;23.22;65.32;93860.72;5060845;28;20218;-76
2023/07/06 07:50:07;;;;;;;12.50;5.55;;;;;;;23.36;65.25;93860.66;5062272;28;20017;-77
2023/07/06 07:52:34;;;;;;;13.95;5.57;;;;;;;23.38;64.30;93852.88;5064539;28;20048;-77
2023/07/06 07:55:00;;;;;;;9.77;5.15;;;;;;;23.37;65.39;93862.22;5064687;28;20036;-76
2023/07/06 07:57:26;;;;;;;17.83;5.53;;;;;;;23.51;63.78;93855.97;5063354;28;20104;-76
2023/07/06 07:59:51;;;;;;;9.60;5.47;;;;;;;23.61;63.41;93859.78;5062222;28;20106;-76
2023/07/06 08:02:17;;;;;;;9.07;4.45;;;;;;;23.66;62.76;93864.81;5063884;28;20037;-76
2023/07/06 08:04:43;;;;;;;8.40;4.47;;;;;;;23.73;62.15;93853.91;5063627;28;20417;-77
2023/07/06 08:07:09;;;;;;;13.93;4.93;;;;;;;23.66;61.39;93855.88;5064104;28;20029;-77
2023/07/06 08:09:35;;;;;;;7.70;4.75;;;;;;;23.75;62.51;93851.56;5064451;28;20192;-77
2023/07/06 08:12:03;;;;;;;12.32;4.95;;;;;;;23.84;61.95;93859.31;5064278;28;20069;-77
2023/07/06 08:14:41;;;;;;;14.95;5.32;;;;;;;23.83;62.78;93855.81;5064798;28;20020;-77
2023/07/06 08:17:06;;;;;;;11.70;5.32;;;;;;;23.80;62.57;93855.84;5064912;28;20025;-77
2023/07/06 08:19:32;;;;;;;8.38;4.85;;;;;;;23.93;61.61;93858.88;5064649;28;20029;-77
2023/07/06 08:21:58;;;;;;;7.07;4.70;;;;;;;24.09;60.62;93859.16;5064894;28;20032;-77
2023/07/06 08:24:24;;;;;;;11.68;5.63;;;;;;;24.18;60.87;93858.69;5064762;28;20049;-78
2023/07/06 08:26:50;;;;;;;6.82;4.75;;;;;;;24.26;60.48;93857.47;5064509;28;20021;-78
2023/07/06 08:29:15;;;;;;;11.00;5.28;;;;;;;24.37;59.62;93855.44;5064546;28;20041;-78
2023/07/06 08:31:43;;;;;;;11.15;5.40;;;;;;;24.40;60.71;93853.88;5064670;28;20025;-78
2023/07/06 08:34:09;;;;;;;11.98;5.47;;;;;;;24.40;60.00;93853.88;5064480;28;20021;-77
2023/07/06 08:36:34;;;;;;;8.88;5.43;;;;;;;24.44;61.03;93849.16;5064589;28;20370;-77
2023/07/06 08:39:01;;;;;;;7.65;5.03;;;;;;;24.45;60.60;93848.00;5064184;28;20028;-77
2023/07/06 08:41:37;;;;;;;10.02;5.22;;;;;;;24.59;60.97;93856.09;5064465;28;20025;-76
2023/07/06 08:44:05;;;;;;;16.30;5.53;;;;;;;24.65;59.71;93861.09;5063072;28;20031;-77
2023/07/06 08:46:35;;;;;;;12.60;6.13;;;;;;;24.65;59.36;93858.34;5064330;28;20096;-77
2023/07/06 08:49:01;;;;;;;10.60;6.82;;;;;;;24.67;58.37;93856.00;5064097;28;20020;-76
2023/07/06 08:51:35;;;;;;;9.48;4.97;;;;;;;24.65;59.59;93861.09;5064057;28;20048;-77
2023/07/06 08:54:07;;;;;;;12.80;4.97;;;;;;;24.61;59.87;93856.44;5064064;28;20040;-77
2023/07/06 08:56:39;;;;;;;10.23;5.63;;;;;;;24.55;58.84;93844.44;5064052;28;20036;-77
2023/07/06 08:59:12;;;;;;;16.30;5.78;;;;;;;24.66;58.11;93849.03;5063950;28;20017;-77
2023/07/06 09:01:39;;;;;;;9.02;5.57;;;;;;;24.72;59.16;93848.16;5064037;28;20025;-78
2023/07/06 09:04:16;;;;;;;9.50;6.28;;;;;;;24.79;57.20;93858.22;5063874;28;20226;-77
2023/07/06 09:06:48;;;;;;;12.82;5.90;;;;;;;24.79;57.17;93850.06;5063394;28;20021;-78
2023/07/06 09:09:13;;;;;;;10.88;5.40;;;;;;;24.89;57.08;93851.91;5063767;28;20043;-77
2023/07/06 09:11:43;;;;;;;9.60;6.28;;;;;;;24.99;57.15;93861.94;5063788;28;20208;-77
2023/07/06 09:14:13;;;;;;;10.02;6.07;;;;;;;25.11;57.77;93854.41;5063693;28;20081;-77
2023/07/06 09:16:57;;;;;;;9.13;5.82;;;;;;;25.29;56.02;93852.28;5063656;28;20071;-77
2023/07/06 09:19:24;;;;;;;10.00;5.63;;;;;;;25.43;55.19;93846.66;5063866;28;20048;-77
2023/07/06 09:21:54;;;;;;;11.18;6.30;;;;;;;25.59;54.69;93854.28;5063620;28;20029;-77
2023/07/06 09:24:27;;;;;;;11.50;6.55;;;;;;;25.76;54.99;93847.03;5063584;28;20041;-77
2023/07/06 09:26:53;;;;;;;8.93;6.38;;;;;;;25.94;54.31;93849.53;5063621;28;20052;-78
2023/07/06 09:29:28;;;;;;;8.38;6.07;;;;;;;25.92;55.71;93842.97;5063601;28;20032;-77
2023/07/06 09:32:19;;;;;;;8.30;5.90;;;;;;;25.85;56.05;93848.47;5063735;28;20058;-77
2023/07/06 09:34:55;;;;;;;8.07;5.90;;;;;;;25.88;56.23;93845.69;5063377;28;20078;-77
2023/07/06 09:37:21;;;;;;;10.05;5.95;;;;;;;25.91;54.30;93844.13;5063177;28;20317;-77
2023/07/06 09:40:04;;;;;;;11.98;6.25;;;;;;;25.96;54.79;93838.22;5063294;28;20025;-77
2023/07/06 09:42:31;;;;;;;10.85;6.10;;;;;;;26.01;55.83;93833.06;5063187;28;20092;-77
2023/07/06 09:44:58;;;;;;;14.48;6.07;;;;;;;26.00;56.46;93836.22;5063431;28;20234;-77
2023/07/06 09:47:24;;;;;;;8.73;5.72;;;;;;;25.99;56.52;93843.63;5063370;28;20314;-77
2023/07/06 09:49:55;;;;;;;8.52;5.90;;;;;;;25.90;55.32;93840.63;5063068;28;20017;-77
2023/07/06 09:52:21;;;;;;;9.38;5.85;;;;;;;25.90;56.86;93840.63;5062996;28;20204;-77
2023/07/06 09:54:59;;;;;;;11.15;5.95;;;;;;;25.92;57.17;93843.72;5063024;28;20025;-78
2023/07/06 09:57:31;;;;;;;13.32;6.13;;;;;;;25.91;56.08;93836.72;5063195;28;20056;-77
2023/07/06 09:59:58;;;;;;;10.18;6.10;;;;;;;26.00;56.45;93825.28;5063108;28;20095;-77
2023/07/06 10:02:36;;;;;;;11.00;6.28;;;;;;;25.98;54.79;93825.69;5063154;28;20048;-77
2023/07/06 10:05:22;;;;;;;17.88;6.57;;;;;;;25.90;55.61;93826.22;5062820;28;20048;-77
2023/07/06 10:07:53;;;;;;;10.70;6.97;;;;;;;25.90;55.98;93828.94;5062792;28;20052;-77
2023/07/06 10:10:36;;;;;;;16.95;5.88;;;;;;;25.98;54.53;93830.38;5062775;28;20338;-77
2023/07/06 10:13:23;;;;;;;14.65;6.68;;;;;;;26.01;53.17;93832.28;5062840;28;20367;-77
2023/07/06 10:15:54;;;;;;;13.27;6.70;;;;;;;25.95;53.54;93831.19;5062814;28;20096;-77
2023/07/06 10:18:27;;;;;;;11.02;5.82;;;;;;;26.06;56.52;93833.78;5062388;28;20025;-77
2023/07/06 10:20:58;;;;;;;7.55;5.47;;;;;;;26.26;55.14;93834.66;5062719;28;20091;-77
2023/07/06 10:23:24;;;;;;;13.80;6.53;;;;;;;26.42;56.36;93836.75;5062637;28;20036;-77
2023/07/06 10:25:56;;;;;;;9.90;6.25;;;;;;;26.55;53.45;93845.13;5062609;28;20086;-76
2023/07/06 10:28:28;;;;;;;17.25;6.38;;;;;;;26.69;53.21;93838.69;5062673;28;20307;-78
2023/07/06 10:30:57;;;;;;;9.95;5.50;;;;;;;26.92;52.95;93835.13;5062719;28;20033;-77
2023/07/06 10:33:28;;;;;;;10.98;5.88;;;;;;;27.06;53.03;93837.63;5062813;28;20028;-78
2023/07/06 10:35:58;;;;;;;7.47;5.75;;;;;;;27.12;52.41;93832.44;5062773;28;20021;-78
2023/07/06 10:38:24;;;;;;;25.20;6.88;;;;;;;27.13;52.13;93823.03;5062801;28;20341;-78
2023/07/06 10:41:13;;;;;;;11.90;6.28;;;;;;;27.17;53.36;93832.72;5062589;28;20071;-77
2023/07/06 10:43:43;;;;;;;11.93;5.97;;;;;;;27.13;52.09;93834.75;5062192;28;20279;-77
2023/07/06 10:46:27;;;;;;;9.65;5.88;;;;;;;27.07;53.20;93841.91;5062582;28;20025;-76
2023/07/06 10:48:59;;;;;;;10.25;6.20;;;;;;;27.03;52.77;93835.72;5062651;28;20368;-77
2023/07/06 10:51:27;;;;;;;10.48;6.20;;;;;;;27.05;52.80;93838.03;5062477;28;20057;-77
2023/07/06 10:54:16;;;;;;;11.93;6.10;;;;;;;26.94;52.83;93832.75;5062537;28;20028;-77
2023/07/06 10:56:47;;;;;;;10.40;6.60;;;;;;;26.91;54.10;93826.19;5062492;28;20024;-78
2023/07/06 10:59:20;;;;;;;10.45;5.80;;;;;;;26.93;54.18;93828.50;5062375;28;20323;-77
2023/07/06 11:01:47;;;;;;;16.63;6.05;;;;;;;26.92;54.32;93824.97;5062539;28;20025;-77
2023/07/06 11:04:43;;;;;;;11.75;6.75;;;;;;;26.82;54.47;93823.97;5062230;28;20033;-76
2023/07/06 11:07:11;;;;;;;11.73;5.85;;;;;;;26.75;54.04;93809.66;5062405;28;20042;-77
2023/07/06 11:10:07;;;;;;;8.82;5.43;;;;;;;26.73;53.22;93810.09;5062143;28;20059;-77
2023/07/06 11:12:33;;;;;;;9.20;5.47;;;;;;;26.77;54.35;93804.56;5062412;28;20021;-77
2023/07/06 11:15:15;;;;;;;14.07;5.55;;;;;;;26.78;55.50;93808.81;5062200;28;20071;-77
2023/07/06 11:17:48;;;;;;;10.10;5.53;;;;;;;26.90;53.80;93796.50;5062070;28;20307;-77
2023/07/06 11:20:23;;;;;;;12.20;6.35;;;;;;;27.02;52.84;93796.66;5062154;28;20020;-76
2023/07/06 11:22:54;;;;;;;11.68;5.78;;;;;;;27.15;51.09;93798.75;5062102;28;20033;-77
2023/07/06 11:25:21;;;;;;;7.25;5.38;;;;;;;27.32;49.61;93800.41;5062233;28;20024;-77
2023/07/06 11:27:53;;;;;;;10.93;6.15;;;;;;;27.53;50.45;93806.63;5061916;28;20040;-77
2023/07/06 11:30:23;;;;;;;10.52;5.65;;;;;;;27.84;49.19;93806.38;5063206;28;20214;-78
2023/07/06 11:33:27;;;;;;;12.88;4.55;;;;;;;28.30;48.16;93815.53;5065666;28;20195;-78
2023/07/06 11:36:20;;;;;;;7.57;5.35;;;;;;;28.66;47.43;93814.66;5044241;28;20037;-78